createdAt,value
2019-04-16T00:02:27.374Z,26.50
2019-04-16T00:05:01.225Z,27.23
2019-04-16T00:07:44.276Z,26.13
2019-04-16T00:10:15.598Z,27.43
2019-04-16T00:12:56.332Z,25.30
2019-04-16T00:15:25.868Z,26.67
2019-04-16T00:17:55.420Z,25.10
2019-04-16T00:20:24.941Z,26.30
2019-04-16T00:23:12.142Z,27.70
2019-04-16T00:25:41.692Z,26.47
2019-04-16T00:28:11.236Z,31.40
2019-04-16T00:30:41.085Z,28.92
2019-04-16T00:33:11.495Z,27.90
2019-04-16T00:35:41.101Z,29.30
2019-04-16T00:38:10.604Z,31.37
2019-04-16T00:40:40.161Z,27.45
2019-04-16T00:43:09.672Z,28.67
2019-04-16T00:45:40.365Z,27.95
2019-04-16T00:48:09.857Z,26.90
2019-04-16T00:50:39.390Z,29.27
2019-04-16T00:53:09.263Z,25.93
2019-04-16T00:55:38.799Z,31.03
2019-04-16T00:58:08.563Z,29.60
2019-04-16T01:00:38.155Z,28.17
2019-04-16T01:03:07.678Z,30.03
2019-04-16T01:05:37.199Z,31.50
2019-04-16T01:08:06.851Z,29.87
2019-04-16T01:10:36.351Z,28.90
2019-04-16T01:13:05.848Z,30.00
2019-04-16T01:15:35.375Z,29.80
2019-04-16T01:18:07.823Z,30.17
2019-04-16T01:20:36.220Z,30.60
2019-04-16T01:23:05.744Z,28.93
2019-04-16T01:25:35.235Z,29.15
2019-04-16T01:28:09.384Z,28.10
2019-04-16T01:30:40.519Z,27.30
2019-04-16T01:33:27.498Z,29.27
2019-04-16T01:36:04.046Z,27.67
2019-04-16T01:38:35.177Z,29.77
2019-04-16T01:41:06.390Z,30.07
2019-04-16T01:43:36.463Z,26.68
2019-04-16T01:46:06.188Z,29.33
2019-04-16T01:48:38.598Z,28.47
2019-04-16T01:51:06.958Z,29.70
2019-04-16T01:53:36.458Z,31.40
2019-04-16T01:56:06.183Z,29.60
2019-04-16T01:58:35.702Z,30.43
2019-04-16T02:01:08.152Z,31.40
2019-04-16T02:03:36.702Z,31.27
2019-04-16T02:06:06.268Z,31.33
2019-04-16T02:08:35.784Z,30.83
2019-04-16T02:11:09.803Z,32.55
2019-04-16T02:13:36.636Z,31.97
2019-04-16T02:16:06.192Z,30.50
2019-04-16T02:18:36.101Z,31.15
2019-04-16T02:21:09.602Z,28.63
2019-04-16T02:23:36.872Z,32.47
2019-04-16T02:26:06.459Z,30.88
2019-04-16T02:28:36.006Z,31.77
2019-04-16T02:31:13.733Z,31.27
2019-04-16T02:33:36.760Z,31.53
2019-04-16T02:36:06.638Z,32.47
2019-04-16T02:38:36.144Z,32.57
2019-04-16T02:41:05.841Z,35.17
2019-04-16T02:43:39.755Z,32.50
2019-04-16T02:46:06.663Z,35.83
2019-04-16T02:48:36.194Z,32.40
2019-04-16T02:51:13.052Z,30.23
2019-04-16T02:53:58.869Z,33.03
2019-04-16T02:56:43.921Z,32.43
2019-04-16T02:59:25.032Z,31.80
2019-04-16T03:01:56.236Z,33.95
2019-04-16T03:04:27.793Z,31.20
2019-04-16T03:06:57.370Z,31.30
2019-04-16T03:09:28.114Z,31.70
2019-04-16T03:11:57.679Z,33.03
2019-04-16T03:14:29.766Z,38.37
2019-04-16T03:17:06.805Z,35.47
2019-04-16T03:19:38.904Z,32.77
2019-04-16T03:22:08.102Z,33.63
2019-04-16T03:24:40.188Z,33.80
2019-04-16T03:27:08.978Z,36.17
2019-04-16T03:29:38.555Z,33.70
2019-04-16T03:32:12.730Z,36.07
2019-04-16T03:34:39.369Z,36.00
2019-04-16T03:37:08.865Z,33.47
2019-04-16T03:39:38.389Z,33.60
2019-04-16T03:42:07.912Z,36.03
2019-04-16T03:44:37.568Z,36.53
2019-04-16T03:47:07.122Z,32.53
2019-04-16T03:49:36.622Z,34.60
2019-04-16T03:52:08.746Z,35.73
2019-04-16T03:54:38.683Z,35.43
2019-04-16T03:57:08.207Z,35.53
2019-04-16T03:59:40.086Z,36.00
2019-04-16T04:02:09.214Z,35.38
2019-04-16T04:04:38.792Z,38.63
2019-04-16T04:07:11.531Z,34.60
2019-04-16T04:09:39.551Z,33.70
2019-04-16T04:12:09.596Z,33.43
2019-04-16T04:14:40.326Z,34.73
2019-04-16T04:17:09.933Z,33.90
2019-04-16T04:19:39.449Z,32.95
2019-04-16T04:22:09.154Z,31.80
2019-04-16T04:24:38.667Z,30.03
2019-04-16T04:27:12.828Z,34.10
2019-04-16T04:29:39.437Z,34.37
2019-04-16T04:32:08.955Z,34.63
2019-04-16T04:34:38.478Z,32.83
2019-04-16T04:37:08.085Z,33.60
2019-04-16T04:39:37.777Z,32.50
2019-04-16T04:42:07.284Z,31.65
2019-04-16T04:44:37.168Z,32.90
2019-04-16T04:47:06.734Z,32.93
2019-04-16T04:49:36.305Z,30.73
2019-04-16T04:52:05.956Z,30.05
2019-04-16T04:54:35.550Z,30.08
2019-04-16T04:57:05.164Z,31.23
2019-04-16T04:59:54.069Z,30.83
2019-04-16T05:02:55.089Z,29.07
2019-04-16T05:05:32.070Z,30.53
2019-04-16T05:08:21.911Z,32.44
2019-04-16T05:10:58.879Z,30.33
2019-04-16T05:13:24.905Z,30.63
2019-04-16T05:15:53.942Z,32.73
2019-04-16T05:18:23.407Z,31.03
2019-04-16T05:20:52.898Z,30.73
2019-04-16T05:23:25.710Z,30.00
2019-04-16T05:25:53.634Z,30.40
2019-04-16T05:28:23.155Z,26.87
2019-04-16T05:30:53.224Z,29.73
2019-04-16T05:33:22.841Z,30.07
2019-04-16T05:35:52.367Z,27.27
2019-04-16T05:38:23.576Z,23.52
2019-04-16T05:40:53.150Z,21.87
2019-04-16T05:43:23.279Z,20.35
2019-04-16T05:45:52.775Z,19.97
2019-04-16T05:48:22.823Z,20.17
2019-04-16T05:50:52.358Z,18.87
2019-04-16T05:53:21.846Z,18.97
2019-04-16T05:55:57.246Z,17.43
2019-04-16T05:58:27.778Z,16.93
2019-04-16T06:00:58.395Z,17.27
2019-04-16T06:03:27.884Z,18.30
2019-04-16T06:05:59.340Z,17.48
2019-04-16T06:08:28.647Z,18.48
2019-04-16T06:10:58.253Z,17.50
2019-04-16T06:13:27.625Z,16.63
2019-04-16T06:16:01.888Z,16.10
2019-04-16T06:18:31.218Z,15.87
2019-04-16T06:21:06.114Z,17.90
2019-04-16T06:23:37.244Z,15.13
2019-04-16T06:26:24.037Z,17.37
2019-04-16T06:28:57.102Z,13.93
2019-04-16T06:31:43.046Z,15.18
2019-04-16T06:34:12.374Z,14.10
2019-04-16T06:36:49.380Z,15.80
2019-04-16T06:39:20.668Z,15.20
2019-04-16T06:41:52.736Z,12.50
2019-04-16T06:44:24.013Z,15.05
2019-04-16T06:46:55.109Z,13.00
2019-04-16T06:49:26.264Z,15.47
2019-04-16T06:52:16.588Z,12.87
2019-04-16T06:55:03.733Z,12.88
2019-04-16T06:57:50.015Z,14.30
2019-04-16T07:00:21.297Z,15.57
2019-04-16T07:03:02.279Z,13.23
2019-04-16T07:05:38.978Z,15.73
2019-04-16T07:08:36.826Z,14.40
2019-04-16T07:10:58.680Z,15.53
2019-04-16T07:13:28.418Z,15.40
2019-04-16T07:15:57.986Z,16.50
2019-04-16T07:18:27.523Z,13.40
2019-04-16T07:20:57.063Z,12.80
2019-04-16T07:23:26.764Z,13.73
2019-04-16T07:25:56.517Z,12.80
2019-04-16T07:28:34.844Z,13.70
2019-04-16T07:31:32.722Z,13.30
2019-04-16T07:34:12.181Z,11.46
2019-04-16T07:37:00.477Z,10.37
2019-04-16T07:39:47.991Z,11.85
2019-04-16T07:42:22.228Z,9.80
2019-04-16T07:44:58.780Z,10.75
2019-04-16T07:47:33.878Z,10.03
2019-04-16T07:50:06.029Z,9.40
2019-04-16T07:52:42.088Z,10.43
2019-04-16T07:55:15.273Z,10.52
2019-04-16T07:57:44.791Z,11.22
2019-04-16T08:00:15.124Z,11.03
2019-04-16T08:02:44.633Z,10.63
2019-04-16T08:05:14.266Z,10.93
2019-04-16T08:07:43.823Z,10.43
2019-04-16T08:10:16.647Z,10.83
2019-04-16T08:12:46.540Z,10.18
2019-04-16T08:15:16.168Z,10.38
2019-04-16T08:18:05.062Z,11.00
2019-04-16T08:20:34.911Z,10.65
2019-04-16T08:23:06.119Z,10.60
2019-04-16T08:25:35.702Z,11.00
2019-04-16T08:28:07.431Z,9.73
2019-04-16T08:30:39.371Z,10.03
2019-04-16T08:33:10.526Z,11.65
2019-04-16T08:35:38.974Z,10.43
2019-04-16T08:38:08.540Z,9.70
2019-04-16T08:40:38.044Z,10.37
2019-04-16T08:43:07.548Z,10.33
2019-04-16T08:45:39.923Z,7.10
2019-04-16T08:48:09.263Z,5.83
2019-04-16T08:50:39.254Z,6.20
2019-04-16T08:53:13.560Z,4.90
2019-04-16T08:55:39.995Z,5.65
2019-04-16T08:58:12.275Z,5.43
2019-04-16T09:00:45.891Z,6.24
2019-04-16T09:03:15.278Z,6.10
2019-04-16T09:05:43.606Z,5.58
2019-04-16T09:08:32.654Z,5.27
2019-04-16T09:11:03.679Z,5.58
2019-04-16T09:13:48.166Z,4.50
2019-04-16T09:16:18.004Z,5.08
2019-04-16T09:19:04.541Z,5.24
2019-04-16T09:21:34.062Z,5.43
2019-04-16T09:24:21.545Z,5.00
2019-04-16T09:26:56.439Z,5.37
2019-04-16T09:29:43.537Z,5.40
2019-04-16T09:32:12.836Z,5.33
2019-04-16T09:34:52.490Z,5.42
2019-04-16T09:37:25.497Z,5.12
2019-04-16T09:39:54.649Z,5.28
2019-04-16T09:42:24.160Z,4.80
2019-04-16T09:44:53.689Z,4.47
2019-04-16T09:47:23.257Z,3.52
2019-04-16T09:49:52.825Z,3.08
2019-04-16T09:52:22.995Z,3.62
2019-04-16T09:54:53.601Z,3.30
2019-04-16T09:57:24.489Z,3.43
2019-04-16T09:59:55.920Z,3.00
2019-04-16T10:02:27.221Z,3.45
2019-04-16T10:04:56.721Z,4.92
2019-04-16T10:07:26.314Z,4.95
2019-04-16T10:09:55.927Z,4.80
2019-04-16T10:12:25.444Z,4.60
2019-04-16T10:14:55.005Z,5.72
2019-04-16T10:17:24.585Z,5.92
2019-04-16T10:19:54.113Z,6.22
2019-04-16T10:22:23.732Z,5.10
2019-04-16T10:25:01.902Z,4.70
2019-04-16T10:27:36.315Z,4.78
2019-04-16T10:30:16.196Z,5.90
2019-04-16T10:33:05.230Z,5.10
2019-04-16T10:35:34.772Z,4.67
2019-04-16T10:41:17.880Z,5.55
2019-04-16T10:44:05.033Z,4.70
2019-04-16T10:46:45.175Z,4.42
2019-04-16T10:49:28.015Z,4.47
2019-04-16T10:52:15.130Z,4.97
2019-04-16T10:54:52.174Z,4.95
2019-04-16T10:57:25.992Z,5.33
2019-04-16T11:00:13.128Z,4.50
2019-04-16T11:02:44.373Z,5.33
2019-04-16T11:05:19.153Z,4.55
2019-04-16T11:07:48.627Z,4.28
2019-04-16T11:10:18.340Z,5.03
2019-04-16T11:12:47.853Z,4.75
2019-04-16T11:15:25.193Z,4.50
2019-04-16T11:17:54.860Z,4.20
2019-04-16T11:20:24.611Z,3.50
2019-04-16T11:22:54.248Z,4.10
2019-04-16T11:25:23.923Z,4.20
2019-04-16T11:27:53.517Z,2.27
2019-04-16T11:30:39.823Z,3.10
2019-04-16T11:33:09.292Z,2.92
2019-04-16T11:35:38.907Z,2.83
2019-04-16T11:38:08.446Z,2.50
2019-04-16T11:40:40.963Z,2.50
2019-04-16T11:43:09.413Z,2.60
2019-04-16T11:45:39.102Z,2.47
2019-04-16T11:48:08.711Z,2.37
2019-04-16T11:50:38.327Z,2.05
2019-04-16T11:53:07.950Z,2.63
2019-04-16T11:55:37.629Z,3.08
2019-04-16T11:58:09.262Z,2.10
2019-04-16T12:00:46.135Z,2.37
2019-04-16T12:03:36.708Z,2.55
2019-04-16T12:06:28.313Z,2.57
2019-04-16T12:09:12.411Z,2.80
2019-04-16T12:12:01.368Z,2.30
2019-04-16T12:14:34.683Z,3.00
2019-04-16T12:17:20.365Z,2.33
2019-04-16T12:20:07.423Z,2.40
2019-04-16T12:22:39.360Z,3.10
2019-04-16T12:25:13.841Z,2.60
2019-04-16T12:27:48.814Z,2.30
2019-04-16T12:30:23.761Z,2.52
2019-04-16T12:33:08.810Z,2.20
2019-04-16T12:35:35.972Z,2.17
2019-04-16T12:38:19.233Z,2.80
2019-04-16T12:41:08.632Z,2.40
2019-04-16T12:43:39.848Z,2.30
2019-04-16T12:46:23.096Z,2.14
2019-04-16T12:48:53.288Z,2.58
2019-04-16T12:51:30.474Z,2.55
2019-04-16T12:54:01.770Z,4.20
2019-04-16T12:56:50.742Z,2.30
2019-04-16T12:59:24.937Z,2.50
2019-04-16T13:01:56.113Z,2.85
2019-04-16T13:04:30.891Z,2.22
2019-04-16T13:07:10.965Z,2.20
2019-04-16T13:09:46.007Z,2.92
2019-04-16T13:12:33.002Z,3.40
2019-04-16T13:15:08.133Z,2.10
2019-04-16T13:17:39.259Z,3.17
2019-04-16T13:20:13.511Z,2.35
2019-04-16T13:22:44.652Z,2.20
2019-04-16T13:25:19.870Z,2.55
2019-04-16T13:27:50.989Z,3.25
2019-04-16T13:30:21.330Z,2.60
2019-04-16T13:32:50.936Z,2.30
2019-04-16T13:35:20.501Z,2.17
2019-04-16T13:37:50.012Z,2.43
2019-04-16T13:40:19.896Z,2.90
2019-04-16T13:42:49.455Z,2.75
2019-04-16T13:48:27.589Z,3.00
2019-04-16T13:50:58.942Z,2.10
2019-04-16T13:56:39.769Z,2.12
2019-04-16T13:59:11.067Z,2.77
2019-04-16T14:01:59.070Z,3.58
2019-04-16T14:04:31.515Z,2.70
2019-04-16T14:07:00.005Z,2.40
2019-04-16T14:09:29.522Z,2.37
2019-04-16T14:11:59.101Z,3.05
2019-04-16T14:14:28.729Z,4.03
2019-04-16T14:17:08.227Z,3.63
2019-04-16T14:19:29.570Z,3.40
2019-04-16T14:21:59.186Z,2.80
2019-04-16T14:24:28.766Z,2.52
2019-04-16T14:26:58.631Z,2.55
2019-04-16T14:29:28.195Z,2.80
2019-04-16T14:31:57.751Z,2.50
2019-04-16T14:34:31.994Z,2.87
2019-04-16T14:37:21.084Z,2.77
2019-04-16T14:39:55.113Z,2.80
2019-04-16T14:42:24.616Z,2.40
2019-04-16T14:45:07.428Z,2.42
2019-04-16T14:47:38.052Z,2.73
2019-04-16T14:53:51.138Z,2.60
2019-04-16T14:59:04.277Z,2.50
2019-04-16T15:01:35.441Z,2.40
2019-04-16T15:07:23.841Z,3.80
2019-04-16T15:10:01.084Z,2.92
2019-04-16T15:12:35.096Z,3.17
2019-04-16T15:15:20.040Z,2.70
2019-04-16T15:17:57.075Z,2.40
2019-04-16T15:20:44.315Z,4.00
2019-04-16T15:23:18.123Z,2.62
2019-04-16T15:26:05.173Z,2.83
2019-04-16T15:28:52.639Z,2.50
2019-04-16T15:31:23.774Z,2.53
2019-04-16T15:33:54.917Z,2.60
2019-04-16T15:36:28.794Z,6.40
2019-04-16T15:39:11.976Z,5.30
2019-04-16T15:41:59.197Z,4.40
2019-04-16T15:44:32.062Z,5.73
2019-04-16T15:47:18.381Z,5.80
2019-04-16T15:50:00.704Z,6.22
2019-04-16T15:52:39.061Z,5.00
2019-04-16T15:55:26.575Z,6.80
2019-04-16T15:58:04.925Z,8.70
2019-04-16T16:00:54.966Z,4.57
2019-04-16T16:03:26.845Z,5.67
2019-04-16T16:06:09.662Z,5.17
2019-04-16T16:08:57.017Z,6.67
2019-04-16T16:11:26.287Z,7.13
2019-04-16T16:13:59.228Z,6.00
2019-04-16T16:16:40.826Z,7.00
2019-04-16T16:18:58.259Z,9.07
2019-04-16T16:21:27.791Z,6.43
2019-04-16T16:23:57.277Z,5.87
2019-04-16T16:26:26.824Z,6.73
2019-04-16T16:28:56.353Z,5.80
2019-04-16T16:31:26.128Z,6.18
2019-04-16T16:33:55.618Z,5.72
2019-04-16T16:36:25.119Z,6.63
2019-04-16T16:38:54.764Z,5.30
2019-04-16T16:41:24.561Z,6.58
2019-04-16T16:43:54.049Z,5.25
2019-04-16T16:46:34.006Z,6.87
2019-04-16T16:49:03.518Z,7.80
2019-04-16T16:51:33.072Z,9.40
2019-04-16T16:54:20.414Z,5.83
2019-04-16T16:57:01.555Z,7.53
2019-04-16T16:59:43.251Z,5.50
2019-04-16T17:02:17.091Z,10.80
2019-04-16T17:04:54.402Z,5.77
2019-04-16T17:07:24.029Z,14.13
2019-04-16T17:09:53.606Z,12.20
2019-04-16T17:12:23.179Z,9.95
2019-04-16T17:14:52.674Z,6.42
2019-04-16T17:17:22.189Z,10.87
2019-04-16T17:19:51.683Z,6.10
2019-04-16T17:22:21.240Z,7.47
2019-04-16T17:24:50.740Z,6.80
2019-04-16T17:27:20.253Z,7.93
2019-04-16T17:29:50.912Z,8.58
2019-04-16T17:32:20.556Z,6.33
2019-04-16T17:34:50.684Z,9.60
2019-04-16T17:37:21.330Z,4.53
2019-04-16T17:39:53.168Z,5.70
2019-04-16T17:42:27.037Z,4.08
2019-04-16T17:45:13.988Z,6.90
2019-04-16T17:48:01.000Z,4.23
2019-04-16T17:50:41.254Z,3.30
2019-04-16T17:53:27.493Z,3.33
2019-04-16T17:56:14.815Z,5.03
2019-04-16T17:58:49.491Z,3.58
2019-04-16T18:01:23.369Z,4.53
2019-04-16T18:03:58.387Z,3.73
2019-04-16T18:06:29.509Z,4.47
2019-04-16T18:08:58.832Z,3.50
2019-04-16T18:11:29.976Z,3.37
2019-04-16T18:14:11.273Z,3.87
2019-04-16T18:16:39.698Z,2.40
2019-04-16T18:19:15.037Z,2.43
2019-04-16T18:21:46.244Z,5.00
2019-04-16T18:24:20.312Z,5.60
2019-04-16T18:26:51.480Z,3.37
2019-04-16T18:29:22.612Z,5.70
2019-04-16T18:32:31.855Z,3.05
2019-04-16T18:35:17.127Z,2.40
2019-04-16T18:37:51.247Z,4.60
2019-04-16T18:40:28.363Z,3.10
2019-04-16T18:43:15.501Z,3.27
2019-04-16T18:46:02.791Z,6.77
2019-04-16T18:48:33.930Z,6.65
2019-04-16T18:51:03.420Z,4.77
2019-04-16T18:53:32.977Z,3.20
2019-04-16T18:56:02.466Z,3.03
2019-04-16T18:58:32.026Z,3.70
2019-04-16T19:01:03.193Z,3.87
2019-04-16T19:03:32.720Z,4.57
2019-04-16T19:06:02.378Z,4.63
2019-04-16T19:08:41.690Z,2.80
2019-04-16T19:11:04.065Z,2.37
2019-04-16T19:13:33.675Z,2.72
2019-04-16T19:16:03.156Z,2.50
2019-04-16T19:18:32.775Z,3.08
2019-04-16T19:21:02.270Z,3.17
2019-04-16T19:23:31.794Z,3.60
2019-04-16T19:26:01.319Z,4.10
2019-04-16T19:28:31.085Z,3.42
2019-04-16T19:31:00.841Z,2.60
2019-04-16T19:33:32.994Z,2.98
2019-04-16T19:36:01.688Z,2.87
2019-04-16T19:38:31.208Z,2.53
2019-04-16T19:41:01.261Z,3.60
2019-04-16T19:43:34.677Z,4.58
2019-04-16T19:46:03.138Z,2.90
2019-04-16T19:48:35.783Z,2.90
2019-04-16T19:51:07.239Z,4.65
2019-04-16T19:53:35.202Z,5.00
2019-04-16T19:56:04.820Z,3.30
2019-04-16T19:58:34.784Z,3.90
2019-04-16T20:01:04.842Z,3.57
2019-04-16T20:03:34.525Z,3.77
2019-04-16T20:06:04.114Z,5.13
2019-04-16T20:08:36.773Z,3.80
2019-04-16T20:11:04.967Z,4.13
2019-04-16T20:13:34.543Z,4.27
2019-04-16T20:16:04.545Z,4.20
2019-04-16T20:18:49.798Z,3.93
2019-04-16T20:21:05.570Z,3.27
2019-04-16T20:23:35.070Z,3.52
2019-04-16T20:26:04.851Z,4.60
2019-04-16T20:28:34.347Z,4.00
2019-04-16T20:31:04.779Z,6.77
2019-04-16T20:33:34.383Z,4.23
2019-04-16T20:36:03.938Z,3.53
2019-04-16T20:38:34.396Z,3.50
2019-04-16T20:41:03.877Z,6.60
2019-04-16T20:43:33.421Z,4.03
2019-04-16T20:46:02.899Z,6.13
2019-04-16T20:48:32.419Z,3.33
2019-04-16T20:51:02.541Z,3.55
2019-04-16T20:53:32.054Z,5.13
2019-04-16T20:56:01.548Z,4.63
2019-04-16T20:58:32.086Z,3.53
2019-04-16T21:01:03.234Z,6.33
2019-04-16T21:03:32.796Z,3.23
2019-04-16T21:06:07.170Z,3.50
2019-04-16T21:08:33.520Z,4.20
2019-04-16T21:11:07.887Z,6.00
2019-04-16T21:13:34.270Z,4.53
2019-04-16T21:16:03.825Z,4.10
2019-04-16T21:18:33.600Z,4.10
2019-04-16T21:21:03.112Z,4.67
2019-04-16T21:23:34.703Z,6.13
2019-04-16T21:26:03.855Z,4.43
2019-04-16T21:28:37.651Z,5.40
2019-04-16T21:31:45.503Z,4.00
2019-04-16T21:37:15.398Z,5.47
2019-04-16T21:40:04.574Z,4.33
2019-04-16T21:42:35.053Z,4.67
2019-04-16T21:45:07.712Z,6.10
2019-04-16T21:47:37.192Z,6.20
2019-04-16T21:50:08.466Z,4.87
2019-04-16T21:52:37.999Z,4.77
2019-04-16T21:55:09.236Z,4.83
2019-04-16T21:57:38.749Z,5.03
2019-04-16T22:00:11.110Z,6.10
2019-04-16T22:02:41.537Z,5.97
2019-04-16T22:05:11.417Z,7.63
2019-04-16T22:07:40.901Z,5.13
2019-04-16T22:10:10.724Z,5.90
2019-04-16T22:12:40.206Z,8.70
2019-04-16T22:15:09.946Z,7.13
2019-04-16T22:17:39.458Z,5.63
2019-04-16T22:20:09.271Z,4.47
2019-04-16T22:22:38.774Z,4.70
2019-04-16T22:25:09.654Z,5.37
2019-04-16T22:27:39.649Z,5.47
2019-04-16T22:30:10.166Z,4.30
2019-04-16T22:32:39.656Z,4.30
2019-04-16T22:35:09.307Z,4.23
2019-04-16T22:37:38.819Z,5.40
2019-04-16T22:40:10.013Z,6.03
2019-04-16T22:42:57.930Z,7.05
2019-04-16T22:45:32.746Z,8.10
2019-04-16T22:48:02.576Z,6.20
2019-04-16T22:50:34.722Z,4.78
2019-04-16T22:53:03.609Z,6.30
2019-04-16T22:55:33.130Z,5.30
2019-04-16T22:58:04.520Z,4.50
2019-04-16T23:00:35.583Z,5.33
2019-04-16T23:03:05.294Z,4.83
2019-04-16T23:05:34.801Z,4.67
2019-04-16T23:08:04.282Z,4.80
2019-04-16T23:10:33.784Z,7.17
2019-04-16T23:13:03.271Z,7.23
2019-04-16T23:15:33.390Z,5.63
2019-04-16T23:18:04.109Z,5.92
2019-04-16T23:20:36.971Z,8.70
2019-04-16T23:23:04.792Z,8.97
2019-04-16T23:25:34.294Z,6.07
2019-04-16T23:28:09.484Z,5.47
2019-04-16T23:30:35.180Z,5.55
2019-04-16T23:33:04.822Z,5.28
2019-04-16T23:35:34.322Z,6.07
2019-04-16T23:38:03.817Z,7.13
2019-04-16T23:40:33.342Z,5.78
2019-04-16T23:43:07.401Z,6.87
2019-04-16T23:45:38.526Z,7.27
2019-04-16T23:48:28.324Z,8.87
2019-04-16T23:51:01.305Z,8.33
2019-04-16T23:53:38.139Z,8.70
2019-04-16T23:56:07.960Z,7.40
2019-04-16T23:58:39.094Z,6.97
